Time;durP1;ratioP1;P1;durP2;ratioP2;P2;SDS_P1;SDS_P2;PMS_P1;PMS_P2;Temp;Humidity;BMP_temperature;BMP_pressure;BME280_temperature;BME280_humidity;BME280_pressure;Samples;Min_cycle;Max_cycle;Signal;HPM_P1;HPM_P2
2023/12/20 00:02:13;;;;;;;;;;;;;;;7.34;100.00;101543.66;5113212;28;20331;-45
2023/12/20 00:04:39;;;;;;;;;;;;;;;7.35;100.00;101556.91;5112986;28;20345;-44
2023/12/20 00:07:04;;;;;;;;;;;;;;;7.40;100.00;101548.44;5112789;28;19926;-43
2023/12/20 00:09:29;;;;;;;;;;;;;;;7.43;100.00;101543.63;5112958;28;20025;-44
2023/12/20 00:11:54;;;;;;;;;;;;;;;7.50;100.00;101537.69;5112644;28;20012;-43
2023/12/20 00:14:20;;;;;;;;;;;;;;;7.49;100.00;101536.84;5112850;28;20009;-43
2023/12/20 00:16:45;;;;;;;;;;;;;;;7.51;100.00;101534.88;5113145;28;20289;-46
2023/12/20 00:19:10;;;;;;;;;;;;;;;7.52;100.00;101533.03;5111984;28;19919;-44
2023/12/20 00:21:35;;;;;;;;;;;;;;;7.53;100.00;101527.56;5112030;28;19966;-43
2023/12/20 00:24:01;;;;;;;;;;;;;;;7.58;100.00;101536.00;5112259;28;19926;-44
2023/12/20 00:26:28;;;;;;;;;;;;;;;7.58;100.00;101535.13;5112701;28;19951;-44
2023/12/20 00:28:53;;;;;;;;;;;;;;;7.60;100.00;101533.16;5112352;28;19919;-44
2023/12/20 00:31:18;;;;;;;;;;;;;;;7.58;100.00;101532.44;5112629;28;19920;-44
2023/12/20 00:33:43;;;;;;;;;;;;;;;7.58;100.00;101536.00;5112728;28;19942;-45
2023/12/20 00:36:09;;;;;;;;;;;;;;;7.52;100.00;101536.56;5110305;28;19920;-44
2023/12/20 00:38:34;;;;;;;;;;;;;;;7.47;100.00;101544.19;5112884;28;19919;-44
2023/12/20 00:41:00;;;;;;;;;;;;;;;7.44;100.00;101544.47;5113184;28;20031;-44
2023/12/20 00:43:25;;;;;;;;;;;;;;;7.37;100.00;101540.66;5112993;28;19965;-44
2023/12/20 00:45:50;;;;;;;;;;;;;;;7.36;100.00;101547.03;5113317;28;19923;-44
2023/12/20 00:48:15;;;;;;;;;;;;;;;7.34;100.00;101547.16;5112962;28;19972;-44
2023/12/20 00:50:40;;;;;;;;;;;;;;;7.37;100.00;101540.66;5112550;28;20002;-44
2023/12/20 00:53:06;;;;;;;;;;;;;;;7.38;100.00;101534.34;5110854;28;20008;-45
2023/12/20 00:55:31;;;;;;;;;;;;;;;7.37;100.00;101538.00;5112533;28;19938;-44
2023/12/20 00:57:56;;;;;;;;;;;;;;;7.39;100.00;101542.22;5111794;28;19920;-44
2023/12/20 01:00:21;;;;;;;;;;;;;;;7.37;100.00;101533.50;5112454;28;19920;-43
2023/12/20 01:02:49;;;;;;;;;;;;;;;7.45;100.00;101548.81;5112347;28;19931;-44
2023/12/20 01:05:14;;;;;;;;;;;;;;;7.46;100.00;101550.53;5113304;28;19939;-44
2023/12/20 01:07:39;;;;;;;;;;;;;;;7.52;100.00;101547.28;5112822;28;19919;-44
2023/12/20 01:10:05;;;;;;;;;;;;;;;7.53;100.00;101556.16;5130553;27;19920;-44
2023/12/20 01:12:30;;;;;;;;;;;;;;;7.54;100.00;101558.69;5105041;28;19973;-44
2023/12/20 01:14:55;;;;;;;;;;;;;;;7.61;100.00;101540.19;5112380;28;19999;-43
2023/12/20 01:17:20;;;;;;;;;;;;;;;7.66;100.00;101551.31;5112371;28;19997;-44
2023/12/20 01:19:46;;;;;;;;;;;;;;;7.69;100.00;101546.53;5112510;28;19951;-44
2023/12/20 01:22:13;;;;;;;;;;;;;;;7.70;100.00;101545.53;5111774;28;20312;-42
2023/12/20 01:24:38;;;;;;;;;;;;;;;7.69;100.00;101551.88;5112452;28;20428;-46
2023/12/20 01:27:03;;;;;;;;;;;;;;;7.71;100.00;101551.72;5112410;28;19920;-42
2023/12/20 01:29:28;;;;;;;;;;;;;;;7.69;100.00;101549.22;5112283;28;20450;-44
2023/12/20 01:31:54;;;;;;;;;;;;;;;7.72;100.00;101547.22;5112349;28;20033;-44
2023/12/20 01:34:19;;;;;;;;;;;;;;;7.68;100.00;101547.50;5116075;28;19926;-44
2023/12/20 01:36:44;;;;;;;;;;;;;;;7.73;100.00;101532.84;5115812;28;19946;-44
2023/12/20 01:39:09;;;;;;;;;;;;;;;7.75;100.00;101538.91;5116060;28;19920;-44
2023/12/20 01:41:34;;;;;;;;;;;;;;;7.76;100.00;101522.66;5115775;28;20438;-43
2023/12/20 01:44:00;;;;;;;;;;;;;;;7.76;100.00;101519.13;5115865;28;19931;-43
2023/12/20 01:46:25;;;;;;;;;;;;;;;7.79;100.00;101535.75;5116108;28;19919;-44
2023/12/20 01:48:50;;;;;;;;;;;;;;;7.79;100.00;101541.13;5115974;28;19919;-43
2023/12/20 01:51:15;;;;;;;;;;;;;;;7.75;100.00;101541.56;5114371;28;19920;-44
2023/12/20 01:53:40;;;;;;;;;;;;;;;7.76;100.00;101533.38;5115757;28;19919;-44
2023/12/20 01:56:06;;;;;;;;;;;;;;;7.73;100.00;101532.84;5115675;28;19968;-43
2023/12/20 01:58:31;;;;;;;;;;;;;;;7.70;100.00;101523.25;5115950;28;19972;-44
2023/12/20 02:00:56;;;;;;;;;;;;;;;7.63;100.00;101522.97;5115031;28;19920;-43
2023/12/20 02:03:22;;;;;;;;;;;;;;;7.60;100.00;101522.44;5089430;28;19943;-43
2023/12/20 02:05:47;;;;;;;;;;;;;;;7.56;100.00;101527.25;5114036;28;19926;-46
2023/12/20 02:08:12;;;;;;;;;;;;;;;7.58;100.00;101521.72;5115499;27;19920;-43
2023/12/20 02:10:38;;;;;;;;;;;;;;;7.53;100.00;101538.25;5116114;28;19926;-43
2023/12/20 02:13:04;;;;;;;;;;;;;;;7.49;100.00;101536.84;5115458;28;19920;-42
2023/12/20 02:15:29;;;;;;;;;;;;;;;7.45;100.00;101535.44;5115247;28;19923;-45
2023/12/20 02:17:54;;;;;;;;;;;;;;;7.46;100.00;101534.47;5115259;28;19920;-44
2023/12/20 02:20:19;;;;;;;;;;;;;;;7.43;100.00;101529.41;5115238;28;19923;-44
2023/12/20 02:22:45;;;;;;;;;;;;;;;7.45;100.00;101525.59;5115264;28;19924;-42
2023/12/20 02:25:10;;;;;;;;;;;;;;;7.40;100.00;101524.34;5114898;28;20003;-44
2023/12/20 02:27:36;;;;;;;;;;;;;;;7.39;100.00;101528.00;5114648;28;19927;-44
2023/12/20 02:30:01;;;;;;;;;;;;;;;7.40;100.00;101527.03;5114918;28;19924;-45
2023/12/20 02:32:26;;;;;;;;;;;;;;;7.45;100.00;101535.44;5114883;28;20453;-44
2023/12/20 02:34:51;;;;;;;;;;;;;;;7.46;100.00;101537.97;5114645;28;20408;-44
2023/12/20 02:37:17;;;;;;;;;;;;;;;7.49;100.00;101526.13;5114808;28;19915;-42
2023/12/20 02:39:42;;;;;;;;;;;;;;;7.55;100.00;101522.03;5114624;28;20374;-43
2023/12/20 02:42:07;;;;;;;;;;;;;;;7.59;100.00;101523.44;5114452;28;19924;-42
2023/12/20 02:44:32;;;;;;;;;;;;;;;7.62;100.00;101526.66;5113805;28;20006;-44
2023/12/20 02:46:57;;;;;;;;;;;;;;;7.66;100.00;101525.41;5114452;28;20018;-43
2023/12/20 02:49:23;;;;;;;;;;;;;;;7.69;100.00;101518.91;5114971;28;19931;-43
2023/12/20 02:51:48;;;;;;;;;;;;;;;7.62;100.00;101505.22;5114266;28;19920;-44
2023/12/20 02:54:13;;;;;;;;;;;;;;;7.61;100.00;101495.53;5114411;28;19928;-42
2023/12/20 02:56:38;;;;;;;;;;;;;;;7.64;100.00;101513.13;5113115;28;19920;-44
2023/12/20 02:59:05;;;;;;;;;;;;;;;7.60;100.00;101506.38;5114128;28;19920;-46
2023/12/20 03:01:31;;;;;;;;;;;;;;;7.62;100.00;101499.03;5113999;28;19920;-43
2023/12/20 03:03:56;;;;;;;;;;;;;;;7.60;100.00;101501.84;5113989;28;20286;-43
2023/12/20 03:06:21;;;;;;;;;;;;;;;7.61;100.00;101503.56;5114450;28;20328;-43
2023/12/20 03:08:46;;;;;;;;;;;;;;;7.59;100.00;101500.16;5114116;28;20424;-44
2023/12/20 03:11:11;;;;;;;;;;;;;;;7.58;100.00;101495.81;5113849;28;20274;-43
2023/12/20 03:13:37;;;;;;;;;;;;;;;7.60;100.00;101493.81;5113711;28;19999;-44
2023/12/20 03:16:11;;;;;;;;;;;;;;;7.62;100.00;101504.41;5113601;28;19926;-45
2023/12/20 03:18:36;;;;;;;;;;;;;;;7.59;100.00;101500.16;5114166;28;20328;-44
2023/12/20 03:21:01;;;;;;;;;;;;;;;7.63;100.00;101506.91;5112648;28;19927;-43
2023/12/20 03:23:27;;;;;;;;;;;;;;;7.62;100.00;101505.22;5112376;28;19920;-44
2023/12/20 03:25:52;;;;;;;;;;;;;;;7.63;100.00;101506.06;5112990;28;19965;-43
2023/12/20 03:28:18;;;;;;;;;;;;;;;7.60;100.00;101512.56;5114101;28;19919;-43
2023/12/20 03:30:43;;;;;;;;;;;;;;;7.57;100.00;101507.50;5114050;28;19919;-42
2023/12/20 03:33:08;;;;;;;;;;;;;;;7.61;100.00;101508.03;5114652;28;19920;-42
2023/12/20 03:35:33;;;;;;;;;;;;;;;7.57;100.00;101512.03;5115713;28;19965;-45
2023/12/20 03:38:00;;;;;;;;;;;;;;;7.58;100.00;101508.34;5113954;28;19924;-44
2023/12/20 03:40:25;;;;;;;;;;;;;;;7.61;100.00;101506.22;5114564;28;19919;-44
2023/12/20 03:42:50;;;;;;;;;;;;;;;7.54;100.00;101510.47;5113749;28;19920;-43
2023/12/20 03:45:16;;;;;;;;;;;;;;;7.52;100.00;101514.28;5113578;28;19931;-44
2023/12/20 03:47:41;;;;;;;;;;;;;;;7.48;100.00;101511.91;5113480;28;19924;-43
2023/12/20 03:50:06;;;;;;;;;;;;;;;7.49;100.00;101510.06;5114133;28;19930;-43
2023/12/20 03:52:32;;;;;;;;;;;;;;;7.50;100.00;101506.38;5113682;28;19920;-43
2023/12/20 03:54:57;;;;;;;;;;;;;;;7.46;100.00;101500.50;5113644;28;19979;-44
2023/12/20 03:57:22;;;;;;;;;;;;;;;7.44;100.00;101502.47;5113172;28;20003;-43
2023/12/20 03:59:47;;;;;;;;;;;;;;;7.40;100.00;101505.59;5112027;28;19932;-44
2023/12/20 04:02:12;;;;;;;;;;;;;;;7.42;100.00;101506.28;5113006;28;19919;-44
2023/12/20 04:04:38;;;;;;;;;;;;;;;7.41;100.00;101501.91;5112729;28;19927;-44
2023/12/20 04:07:03;;;;;;;;;;;;;;;7.46;100.00;101502.31;5113203;28;19924;-43
2023/12/20 04:09:28;;;;;;;;;;;;;;;7.46;100.00;101505.00;5113690;28;19928;-44
2023/12/20 04:11:53;;;;;;;;;;;;;;;7.41;100.00;101492.03;5113419;28;19927;-44
2023/12/20 04:14:19;;;;;;;;;;;;;;;7.45;100.00;101505.97;5112245;28;19926;-44
2023/12/20 04:16:44;;;;;;;;;;;;;;;7.41;100.00;101497.41;5113020;28;19919;-44
2023/12/20 04:19:09;;;;;;;;;;;;;;;7.37;100.00;101498.69;5113235;28;19923;-44
2023/12/20 04:21:34;;;;;;;;;;;;;;;7.39;100.00;101491.34;5113401;28;19931;-44
2023/12/20 04:24:00;;;;;;;;;;;;;;;7.36;100.00;101496.16;5113552;28;19920;-42
2023/12/20 04:26:25;;;;;;;;;;;;;;;7.33;100.00;101494.59;5113001;28;20398;-44
2023/12/20 04:28:50;;;;;;;;;;;;;;;7.30;100.00;101488.72;5112797;28;19927;-44
2023/12/20 04:31:15;;;;;;;;;;;;;;;7.31;100.00;101485.03;5112796;28;20358;-45
2023/12/20 04:33:41;;;;;;;;;;;;;;;7.30;100.00;101483.34;5112889;28;20398;-44
2023/12/20 04:36:06;;;;;;;;;;;;;;;7.25;100.00;101481.09;5112714;28;20350;-44
2023/12/20 04:38:31;;;;;;;;;;;;;;;7.29;100.00;101479.81;5112783;28;20408;-44
2023/12/20 04:40:56;;;;;;;;;;;;;;;7.34;100.00;101474.03;5112765;28;19919;-45
2023/12/20 04:43:22;;;;;;;;;;;;;;;7.37;100.00;101471.03;5112683;28;19938;-43
2023/12/20 04:45:47;;;;;;;;;;;;;;;7.39;100.00;101469.91;5112560;28;19966;-44
2023/12/20 04:48:12;;;;;;;;;;;;;;;7.43;100.00;101459.78;5112362;28;19920;-44
2023/12/20 04:50:37;;;;;;;;;;;;;;;7.44;100.00;101448.06;5112545;28;19919;-43
2023/12/20 04:53:03;;;;;;;;;;;;;;;7.41;100.00;101470.63;5111132;28;19919;-44
2023/12/20 04:55:28;;;;;;;;;;;;;;;7.39;100.00;101461.03;5111736;28;19973;-44
2023/12/20 04:57:54;;;;;;;;;;;;;;;7.40;100.00;101452.88;5112545;28;20262;-44
2023/12/20 05:00:19;;;;;;;;;;;;;;;7.39;100.00;101461.88;5112656;28;20031;-44
2023/12/20 05:02:45;;;;;;;;;;;;;;;7.35;100.00;101471.22;5112446;28;19943;-44
2023/12/20 05:05:10;;;;;;;;;;;;;;;7.33;100.00;101469.66;5108626;28;19966;-45
2023/12/20 05:07:35;;;;;;;;;;;;;;;7.26;100.00;101464.88;5113889;28;19920;-45
2023/12/20 05:10:00;;;;;;;;;;;;;;;7.29;100.00;101471.78;5116237;28;19919;-44
2023/12/20 05:12:26;;;;;;;;;;;;;;;7.30;100.00;101472.63;5116399;28;19965;-46
2023/12/20 05:14:54;;;;;;;;;;;;;;;7.30;100.00;101472.63;5116237;28;20376;-44
2023/12/20 05:17:20;;;;;;;;;;;;;;;7.30;100.00;101473.47;5116327;28;20072;-45
2023/12/20 05:19:45;;;;;;;;;;;;;;;7.36;100.00;101470.22;5117194;28;19908;-43
2023/12/20 05:22:10;;;;;;;;;;;;;;;7.37;100.00;101479.94;5117799;28;19943;-43
2023/12/20 05:24:36;;;;;;;;;;;;;;;7.36;100.00;101483.59;5117442;28;19920;-42
2023/12/20 05:27:01;;;;;;;;;;;;;;;7.36;100.00;101466.69;5116819;28;19926;-43
2023/12/20 05:29:26;;;;;;;;;;;;;;;7.33;100.00;101459.78;5111148;28;19937;-43
2023/12/20 05:31:51;;;;;;;;;;;;;;;7.37;100.00;101463.00;5116735;28;20366;-44
2023/12/20 05:34:17;;;;;;;;;;;;;;;7.42;100.00;101468.78;5114817;28;20425;-44
2023/12/20 05:36:42;;;;;;;;;;;;;;;7.44;100.00;101464.13;5114394;28;19924;-44
2023/12/20 05:39:07;;;;;;;;;;;;;;;7.47;100.00;101459.31;5115927;28;19988;-43
2023/12/20 05:41:33;;;;;;;;;;;;;;;7.48;100.00;101450.31;5115298;28;19920;-44
2023/12/20 05:43:58;;;;;;;;;;;;;;;7.47;100.00;101453.94;5115540;27;20006;-43
2023/12/20 05:46:23;;;;;;;;;;;;;;;7.46;100.00;101451.44;5116063;28;19920;-44
2023/12/20 05:48:49;;;;;;;;;;;;;;;7.45;100.00;101449.72;5107198;28;19924;-43
2023/12/20 05:51:14;;;;;;;;;;;;;;;7.44;100.00;101458.78;5103741;28;19923;-45
2023/12/20 05:53:39;;;;;;;;;;;;;;;7.48;100.00;101468.22;5109135;28;19923;-44
2023/12/20 05:56:05;;;;;;;;;;;;;;;7.52;100.00;101450.84;5110398;28;19979;-43
2023/12/20 05:58:30;;;;;;;;;;;;;;;7.53;100.00;101462.41;5112376;28;20045;-44
2023/12/20 06:00:55;;;;;;;;;;;;;;;7.59;100.00;101467.19;5113410;28;19920;-45
2023/12/20 06:03:21;;;;;;;;;;;;;;;7.63;100.00;101472.09;5108095;28;19927;-43
2023/12/20 06:05:46;;;;;;;;;;;;;;;7.65;100.00;101472.78;5111998;28;20010;-43
2023/12/20 06:08:11;;;;;;;;;;;;;;;7.72;100.00;101467.69;5115620;28;20251;-44
2023/12/20 06:10:37;;;;;;;;;;;;;;;7.73;100.00;101471.22;5114247;28;19920;-43
2023/12/20 06:13:04;;;;;;;;;;;;;;;7.70;100.00;101465.16;5115482;28;20342;-45
2023/12/20 06:15:29;;;;;;;;;;;;;;;7.74;100.00;101462.16;5115577;28;20006;-45
2023/12/20 06:17:54;;;;;;;;;;;;;;;7.78;100.00;101450.19;5115192;28;20374;-43
2023/12/20 06:20:19;;;;;;;;;;;;;;;7.79;100.00;101457.22;5113691;28;20408;-42
2023/12/20 06:22:45;;;;;;;;;;;;;;;7.74;100.00;101460.34;5115294;28;20586;-44
2023/12/20 06:25:10;;;;;;;;;;;;;;;7.75;100.00;101455.84;5115039;28;20338;-44
2023/12/20 06:27:35;;;;;;;;;;;;;;;7.74;100.00;101448.78;5114932;28;20100;-44
2023/12/20 06:30:00;;;;;;;;;;;;;;;7.71;100.00;101452.59;5114805;28;20022;-44
2023/12/20 06:32:25;;;;;;;;;;;;;;;7.74;100.00;101462.16;5114605;28;20333;-44
2023/12/20 06:34:51;;;;;;;;;;;;;;;7.65;100.00;101450.50;5106722;28;20216;-44
2023/12/20 06:37:16;;;;;;;;;;;;;;;7.65;100.00;101462.06;5114875;28;19920;-44
2023/12/20 06:39:42;;;;;;;;;;;;;;;7.62;100.00;101440.09;5114634;28;19931;-43
2023/12/20 06:42:07;;;;;;;;;;;;;;;7.59;100.00;101464.50;5114930;28;19920;-42
2023/12/20 06:44:32;;;;;;;;;;;;;;;7.59;100.00;101461.81;5115307;28;20007;-43
2023/12/20 06:46:57;;;;;;;;;;;;;;;7.56;100.00;101451.41;5114739;28;19927;-43
2023/12/20 06:49:23;;;;;;;;;;;;;;;7.55;100.00;101439.00;5114279;28;19926;-44
2023/12/20 06:51:48;;;;;;;;;;;;;;;7.50;100.00;101443.94;5114679;28;19994;-43
2023/12/20 06:54:13;;;;;;;;;;;;;;;7.48;100.00;101449.47;5112704;27;19926;-43
2023/12/20 06:56:38;;;;;;;;;;;;;;;7.52;100.00;101434.78;5111498;27;19928;-47
2023/12/20 06:59:04;;;;;;;;;;;;;;;7.52;100.00;101436.63;5101431;28;19920;-43
2023/12/20 07:01:29;;;;;;;;;;;;;;;7.50;100.00;101435.91;5110416;28;19959;-43
2023/12/20 07:03:54;;;;;;;;;;;;;;;7.49;100.00;101429.72;5108469;28;19966;-42
2023/12/20 07:06:20;;;;;;;;;;;;;;;7.49;100.00;101427.03;5114172;28;19993;-43
2023/12/20 07:08:45;;;;;;;;;;;;;;;7.50;100.00;101430.56;5114273;28;20461;-44
2023/12/20 07:11:10;;;;;;;;;;;;;;;7.50;100.00;101423.34;5114707;28;19919;-43
2023/12/20 07:13:36;;;;;;;;;;;;;;;7.47;100.00;101426.34;5114123;28;19946;-43
2023/12/20 07:16:01;;;;;;;;;;;;;;;7.46;100.00;101411.28;5113993;28;20043;-43
2023/12/20 07:18:26;;;;;;;;;;;;;;;7.44;100.00;101408.72;5113591;28;19924;-45
2023/12/20 07:20:51;;;;;;;;;;;;;;;7.44;100.00;101406.03;5114223;28;19956;-43
2023/12/20 07:23:17;;;;;;;;;;;;;;;7.46;100.00;101411.28;5111243;28;20460;-42
2023/12/20 07:25:42;;;;;;;;;;;;;;;7.43;100.00;101414.25;5110476;28;19926;-44
2023/12/20 07:28:07;;;;;;;;;;;;;;;7.40;100.00;101422.59;5110473;28;19920;-40
2023/12/20 07:30:33;;;;;;;;;;;;;;;7.41;100.00;101427.78;5111705;28;19919;-39
2023/12/20 07:32:58;;;;;;;;;;;;;;;7.47;100.00;101421.81;5104489;28;19924;-39
2023/12/20 07:35:25;;;;;;;;;;;;;;;7.47;100.00;101429.00;5101038;28;19926;-39
2023/12/20 07:37:50;;;;;;;;;;;;;;;7.45;100.00;101439.03;5106917;28;19924;-41
2023/12/20 07:40:17;;;;;;;;;;;;;;;7.44;100.00;101445.38;5109881;28;19961;-39
2023/12/20 07:42:42;;;;;;;;;;;;;;;7.45;100.00;101439.03;5108927;27;19934;-39
2023/12/20 07:45:07;;;;;;;;;;;;;;;7.45;100.00;101439.03;5104768;27;19923;-40
2023/12/20 07:47:32;;;;;;;;;;;;;;;7.46;100.00;101454.13;5106366;28;19926;-39
2023/12/20 07:49:58;;;;;;;;;;;;;;;7.47;100.00;101445.09;5106184;28;20026;-39
2023/12/20 07:52:23;;;;;;;;;;;;;;;7.50;100.00;101447.47;5103646;28;19961;-39
2023/12/20 07:54:48;;;;;;;;;;;;;;;7.52;100.00;101445.50;5105703;28;19959;-39
2023/12/20 07:57:13;;;;;;;;;;;;;;;7.55;100.00;101455.06;5108529;28;19924;-38
2023/12/20 07:59:39;;;;;;;;;;;;;;;7.58;100.00;101452.09;5100441;28;19923;-38
2023/12/20 08:02:04;;;;;;;;;;;;;;;7.60;100.00;101455.47;5105440;28;20012;-38
2023/12/20 08:04:29;;;;;;;;;;;;;;;7.61;100.00;101452.66;5105562;28;19949;-39
2023/12/20 08:06:55;;;;;;;;;;;;;;;7.62;100.00;101459.69;5105754;28;19926;-37
2023/12/20 08:09:20;;;;;;;;;;;;;;;7.63;100.00;101455.16;5109637;28;20357;-42
2023/12/20 08:11:46;;;;;;;;;;;;;;;7.68;100.00;101460.94;5098596;28;19938;-40
2023/12/20 08:14:11;;;;;;;;;;;;;;;7.69;100.00;101452.75;5098625;28;19932;-41
2023/12/20 08:16:36;;;;;;;;;;;;;;;7.74;100.00;101446.09;5104269;28;20093;-39
2023/12/20 08:19:02;;;;;;;;;;;;;;;7.84;100.00;101471.00;5073359;28;19920;-41
2023/12/20 08:21:27;;;;;;;;;;;;;;;7.87;100.00;101470.72;5101502;28;19926;-39
2023/12/20 08:23:52;;;;;;;;;;;;;;;7.94;100.00;101471.81;5106096;28;19920;-40
2023/12/20 08:26:22;;;;;;;;;;;;;;;7.98;100.00;101466.97;5105785;28;20277;-40
2023/12/20 08:28:47;;;;;;;;;;;;;;;7.98;100.00;101456.25;5105638;28;19919;-40
2023/12/20 08:31:16;;;;;;;;;;;;;;;7.98;100.00;101462.47;5099424;28;20274;-40
2023/12/20 08:33:43;;;;;;;;;;;;;;;7.98;100.00;101440.19;5106058;28;19927;-40
2023/12/20 08:36:08;;;;;;;;;;;;;;;8.04;100.00;101456.50;5084360;28;20007;-39
2023/12/20 08:38:33;;;;;;;;;;;;;;;8.05;100.00;101460.03;5092275;28;20034;-41
2023/12/20 08:40:58;;;;;;;;;;;;;;;8.10;100.00;101455.06;5102300;28;19959;-39
2023/12/20 08:43:23;;;;;;;;;;;;;;;8.18;100.00;101457.00;5103950;28;19928;-39
2023/12/20 08:45:49;;;;;;;;;;;;;;;8.21;100.00;101456.69;5102203;28;19920;-40
2023/12/20 08:48:14;;;;;;;;;;;;;;;8.22;100.00;101450.34;5106097;28;19923;-38
2023/12/20 08:50:39;;;;;;;;;;;;;;;8.28;100.00;101463.13;5100363;28;19935;-40
2023/12/20 08:53:04;;;;;;;;;;;;;;;8.32;100.00;101453.78;5102598;28;19935;-39
2023/12/20 08:55:30;;;;;;;;;;;;;;;8.31;100.00;101449.41;5107413;28;19926;-39
2023/12/20 08:57:56;;;;;;;;;;;;;;;8.36;100.00;101444.44;5108256;28;19920;-39
2023/12/20 09:00:24;;;;;;;;;;;;;;;8.42;100.00;101446.53;5105177;28;19927;-39
2023/12/20 09:02:49;;;;;;;;;;;;;;;8.42;100.00;101443.84;5105906;28;20068;-38
2023/12/20 09:05:14;;;;;;;;;;;;;;;8.47;100.00;101438.03;5103235;28;19998;-38
2023/12/20 09:07:39;;;;;;;;;;;;;;;8.48;100.00;101432.53;5105967;28;19928;-38
2023/12/20 09:10:05;;;;;;;;;;;;;;;8.56;100.00;101447.88;5106080;27;19974;-39
2023/12/20 09:12:30;;;;;;;;;;;;;;;8.59;100.00;101438.66;5103311;28;20007;-39
2023/12/20 09:14:55;;;;;;;;;;;;;;;8.62;100.00;101435.66;5105108;28;20002;-40
2023/12/20 09:17:22;;;;;;;;;;;;;;;8.65;100.00;101438.03;5105570;28;19927;-38
2023/12/20 09:19:48;;;;;;;;;;;;;;;8.58;100.00;101437.78;5104045;28;20305;-40
2023/12/20 09:22:13;;;;;;;;;;;;;;;8.60;100.00;101435.81;5102866;28;19928;-41
2023/12/20 09:24:41;;;;;;;;;;;;;;;8.67;100.00;101444.09;5105518;28;20018;-39
2023/12/20 09:27:06;;;;;;;;;;;;;;;8.70;100.00;101446.47;5102366;28;20023;-39
2023/12/20 09:29:31;;;;;;;;;;;;;;;8.72;100.00;101447.16;5105346;28;20007;-39
2023/12/20 09:31:57;;;;;;;;;;;;;;;8.79;100.00;101450.88;5104988;28;19927;-39
2023/12/20 09:34:22;;;;;;;;;;;;;;;8.74;100.00;101437.09;5103197;28;19926;-40
2023/12/20 09:36:47;;;;;;;;;;;;;;;8.79;100.00;101435.66;5104156;28;20038;-37
2023/12/20 09:39:19;;;;;;;;;;;;;;;8.98;100.00;101429.25;5105503;28;19962;-40
2023/12/20 09:41:46;;;;;;;;;;;;;;;9.13;100.00;101420.59;5102954;28;20377;-40
2023/12/20 09:44:13;;;;;;;;;;;;;;;9.41;100.00;101424.78;5107816;28;20026;-38
2023/12/20 09:46:39;;;;;;;;;;;;;;;9.65;100.00;101442.03;5092753;28;19942;-39
2023/12/20 09:49:04;;;;;;;;;;;;;;;9.68;100.00;101425.59;5101828;28;19923;-40
2023/12/20 09:51:29;;;;;;;;;;;;;;;9.48;100.00;101441.13;5092070;28;20003;-38
2023/12/20 09:53:54;;;;;;;;;;;;;;;9.33;100.00;101448.94;5096349;27;20383;-38
2023/12/20 09:56:20;;;;;;;;;;;;;;;9.29;100.00;101458.28;5100203;28;20227;-39
2023/12/20 09:58:45;;;;;;;;;;;;;;;9.23;100.00;101448.19;5103980;27;19948;-40
2023/12/20 10:01:10;;;;;;;;;;;;;;;9.31;100.00;101469.72;5109981;28;20022;-39
2023/12/20 10:03:36;;;;;;;;;;;;;;;9.87;100.00;101456.75;5106645;28;20031;-38
2023/12/20 10:06:01;;;;;;;;;;;;;;;10.17;100.00;101451.81;5103360;27;19975;-40
2023/12/20 10:08:26;;;;;;;;;;;;;;;10.15;100.00;101456.50;5106498;28;20259;-40
2023/12/20 10:10:51;;;;;;;;;;;;;;;10.00;100.00;101434.78;5106950;27;19951;-41
2023/12/20 10:13:17;;;;;;;;;;;;;;;9.89;100.00;101458.25;5104622;28;19922;-40
2023/12/20 10:15:42;;;;;;;;;;;;;;;9.71;100.00;101446.75;5103549;28;20305;-39
2023/12/20 10:18:08;;;;;;;;;;;;;;;9.64;100.00;101449.25;5111165;28;20290;-40
2023/12/20 10:20:33;;;;;;;;;;;;;;;9.59;100.00;101453.44;5131396;27;19920;-39
2023/12/20 10:22:58;;;;;;;;;;;;;;;9.72;100.00;101440.41;5132292;27;19915;-38
2023/12/20 10:25:24;;;;;;;;;;;;;;;9.71;100.00;101435.16;5116414;27;20006;-38
2023/12/20 10:27:50;;;;;;;;;;;;;;;9.69;100.00;101448.78;5115561;28;19916;-39
2023/12/20 10:30:15;;;;;;;;;;;;;;;9.66;100.00;101444.59;5115312;28;20435;-38
2023/12/20 10:32:40;;;;;;;;;;;;;;;9.61;100.00;101449.59;5115087;28;19930;-38
2023/12/20 10:35:06;;;;;;;;;;;;;;;9.57;100.00;101445.53;5114444;28;19920;-39
2023/12/20 10:37:32;;;;;;;;;;;;;;;9.53;100.00;101459.44;5113313;28;19927;-38
2023/12/20 10:39:57;;;;;;;;;;;;;;;9.51;100.00;101462.31;5105939;27;19924;-38
2023/12/20 10:42:23;;;;;;;;;;;;;;;9.38;100.00;101446.63;5107042;28;20380;-40
2023/12/20 10:44:49;;;;;;;;;;;;;;;9.49;100.00;101441.97;5109636;27;20032;-38
2023/12/20 10:47:14;;;;;;;;;;;;;;;9.55;100.00;101433.25;5115183;28;19923;-39
2023/12/20 10:49:39;;;;;;;;;;;;;;;9.75;100.00;101437.38;5121663;27;19927;-39
2023/12/20 10:52:04;;;;;;;;;;;;;;;9.80;100.00;101429.69;5121900;27;19920;-39
2023/12/20 10:54:30;;;;;;;;;;;;;;;10.03;100.00;101418.31;5111771;28;19927;-39
2023/12/20 10:56:55;;;;;;;;;;;;;;;10.09;100.00;101409.59;5095821;28;19928;-41
2023/12/20 10:59:22;;;;;;;;;;;;;;;10.33;100.00;101414.19;5097335;27;19923;-38
2023/12/20 11:01:47;;;;;;;;;;;;;;;10.55;100.00;101423.47;5108822;28;19991;-38
2023/12/20 11:04:15;;;;;;;;;;;;;;;10.73;100.00;101399.91;5115169;27;19955;-40
2023/12/20 11:06:46;;;;;;;;;;;;;;;10.88;100.00;101401.94;5111300;28;19927;-41
2023/12/20 11:09:21;;;;;;;;;;;;;;;10.81;100.00;101401.75;5113037;27;20366;-40
2023/12/20 11:11:53;;;;;;;;;;;;;;;10.60;100.00;101386.13;5113223;28;19920;-38
2023/12/20 11:14:20;;;;;;;;;;;;;;;10.39;100.00;101381.25;5111722;27;19926;-38
2023/12/20 11:16:45;;;;;;;;;;;;;;;10.36;100.00;101386.13;5113218;28;19926;-40
2023/12/20 11:19:11;;;;;;;;;;;;;;;10.31;100.00;101389.31;5113200;28;20006;-39
2023/12/20 11:21:36;;;;;;;;;;;;;;;10.29;100.00;101381.41;5112179;28;19966;-39
2023/12/20 11:24:01;;;;;;;;;;;;;;;10.14;100.00;101372.28;5111569;28;19990;-39
2023/12/20 11:26:28;;;;;;;;;;;;;;;10.04;100.00;101368.91;5110616;28;19915;-40
2023/12/20 11:28:53;;;;;;;;;;;;;;;10.09;100.00;101363.88;5111146;28;19926;-38
2023/12/20 11:31:19;;;;;;;;;;;;;;;9.98;100.00;101362.34;5111548;28;20018;-39
2023/12/20 11:33:48;;;;;;;;;;;;;;;9.91;100.00;101360.47;5111266;28;19974;-39
2023/12/20 11:36:13;;;;;;;;;;;;;;;9.99;100.00;101368.56;5112481;28;19923;-40
2023/12/20 11:38:39;;;;;;;;;;;;;;;9.93;100.00;101370.06;5094542;28;20255;-39
2023/12/20 11:41:07;;;;;;;;;;;;;;;9.94;100.00;101365.53;5112043;28;19969;-42
2023/12/20 11:43:35;;;;;;;;;;;;;;;9.89;100.00;101368.69;5114934;28;19915;-39
2023/12/20 11:46:06;;;;;;;;;;;;;;;10.01;100.00;101374.63;5113044;28;19920;-38
2023/12/20 11:48:31;;;;;;;;;;;;;;;9.95;100.00;101380.63;5115507;28;19920;-39
2023/12/20 11:50:57;;;;;;;;;;;;;;;9.99;100.00;101384.69;5116657;28;19915;-39
2023/12/20 11:53:22;;;;;;;;;;;;;;;9.95;100.00;101373.41;5117789;28;19927;-39
2023/12/20 11:55:48;;;;;;;;;;;;;;;9.91;100.00;101357.78;5116470;28;19920;-39
2023/12/20 11:58:15;;;;;;;;;;;;;;;9.93;100.00;101369.22;5107974;28;19920;-40
2023/12/20 12:00:40;;;;;;;;;;;;;;;9.98;100.00;101374.94;5110284;28;19920;-39
2023/12/20 12:03:05;;;;;;;;;;;;;;;10.16;100.00;101369.41;5120138;27;19919;-39
2023/12/20 12:05:31;;;;;;;;;;;;;;;10.24;100.00;101377.50;5116106;27;19967;-39
2023/12/20 12:07:56;;;;;;;;;;;;;;;10.31;100.00;101367.78;5109854;28;19946;-40
2023/12/20 12:10:22;;;;;;;;;;;;;;;10.30;100.00;101366.94;5112947;28;19919;-40
2023/12/20 12:12:47;;;;;;;;;;;;;;;10.23;100.00;101354.31;5115045;28;19970;-39
2023/12/20 12:15:13;;;;;;;;;;;;;;;10.11;100.00;101351.94;5113175;28;20377;-39
2023/12/20 12:17:38;;;;;;;;;;;;;;;10.13;100.00;101354.44;5115622;27;19983;-40
2023/12/20 12:20:07;;;;;;;;;;;;;;;10.15;100.00;101346.22;5135214;27;19946;-39
2023/12/20 12:22:33;;;;;;;;;;;;;;;10.11;100.00;101351.09;5134076;27;19928;-40
2023/12/20 12:25:11;;;;;;;;;;;;;;;10.14;100.00;101331.06;5125785;27;19926;-39
2023/12/20 12:27:38;;;;;;;;;;;;;;;10.08;100.00;101335.28;5127724;27;19931;-43